sensor_id;sensor_type;location;lat;lon;timestamp;temperature;humidity
212;DHT22;16228;48.800;9.002;2023-04-24T00:01:03;11.60;96.90
212;DHT22;16228;48.800;9.002;2023-04-24T00:03:33;11.60;96.90
212;DHT22;16228;48.800;9.002;2023-04-24T00:06:00;11.60;96.90
212;DHT22;16228;48.800;9.002;2023-04-24T00:08:28;11.60;96.90
212;DHT22;16228;48.800;9.002;2023-04-24T00:10:55;11.60;96.90
212;DHT22;16228;48.800;9.002;2023-04-24T00:13:23;11.60;96.90
212;DHT22;16228;48.800;9.002;2023-04-24T00:15:50;11.70;96.90
212;DHT22;16228;48.800;9.002;2023-04-24T00:18:17;11.70;96.90
212;DHT22;16228;48.800;9.002;2023-04-24T00:20:44;11.70;96.90
212;DHT22;16228;48.800;9.002;2023-04-24T00:23:12;11.80;96.90
212;DHT22;16228;48.800;9.002;2023-04-24T00:25:39;11.80;96.90
212;DHT22;16228;48.800;9.002;2023-04-24T00:28:06;11.80;96.90
212;DHT22;16228;48.800;9.002;2023-04-24T00:30:34;11.90;96.90
212;DHT22;16228;48.800;9.002;2023-04-24T00:33:01;11.80;96.90
212;DHT22;16228;48.800;9.002;2023-04-24T00:35:29;11.80;96.90
212;DHT22;16228;48.800;9.002;2023-04-24T00:37:56;11.90;96.90
212;DHT22;16228;48.800;9.002;2023-04-24T00:40:23;11.80;96.90
212;DHT22;16228;48.800;9.002;2023-04-24T00:42:50;11.80;96.90
212;DHT22;16228;48.800;9.002;2023-04-24T00:45:17;11.80;96.90
212;DHT22;16228;48.800;9.002;2023-04-24T00:47:45;11.90;96.90
212;DHT22;16228;48.800;9.002;2023-04-24T00:50:14;11.80;96.90
212;DHT22;16228;48.800;9.002;2023-04-24T00:52:41;11.90;96.90
212;DHT22;16228;48.800;9.002;2023-04-24T00:55:09;11.90;96.90
212;DHT22;16228;48.800;9.002;2023-04-24T00:57:36;12.00;96.90
212;DHT22;16228;48.800;9.002;2023-04-24T01:00:04;11.90;96.90
212;DHT22;16228;48.800;9.002;2023-04-24T01:02:37;11.90;96.90
212;DHT22;16228;48.800;9.002;2023-04-24T01:05:07;11.90;96.90
212;DHT22;16228;48.800;9.002;2023-04-24T01:07:35;11.90;96.90
212;DHT22;16228;48.800;9.002;2023-04-24T01:10:02;11.90;96.90
212;DHT22;16228;48.800;9.002;2023-04-24T01:12:30;11.80;96.90
212;DHT22;16228;48.800;9.002;2023-04-24T01:14:57;11.90;96.90
212;DHT22;16228;48.800;9.002;2023-04-24T01:17:24;11.90;96.90
212;DHT22;16228;48.800;9.002;2023-04-24T01:19:51;12.00;96.90
212;DHT22;16228;48.800;9.002;2023-04-24T01:22:21;11.90;96.90
212;DHT22;16228;48.800;9.002;2023-04-24T01:24:48;11.80;96.90
212;DHT22;16228;48.800;9.002;2023-04-24T01:27:15;11.70;96.90
212;DHT22;16228;48.800;9.002;2023-04-24T01:29:42;11.70;96.90
212;DHT22;16228;48.800;9.002;2023-04-24T01:32:09;11.60;96.90
212;DHT22;16228;48.800;9.002;2023-04-24T01:34:37;11.60;96.90
212;DHT22;16228;48.800;9.002;2023-04-24T01:37:04;11.60;96.90
212;DHT22;16228;48.800;9.002;2023-04-24T01:39:33;11.60;96.90
212;DHT22;16228;48.800;9.002;2023-04-24T01:42:00;11.60;96.90
212;DHT22;16228;48.800;9.002;2023-04-24T01:44:27;11.60;96.90
212;DHT22;16228;48.800;9.002;2023-04-24T01:46:55;11.60;96.90
212;DHT22;16228;48.800;9.002;2023-04-24T01:49:22;11.50;96.90
212;DHT22;16228;48.800;9.002;2023-04-24T01:51:48;11.50;96.90
212;DHT22;16228;48.800;9.002;2023-04-24T01:54:15;11.50;96.90
212;DHT22;16228;48.800;9.002;2023-04-24T01:56:44;11.40;96.90
212;DHT22;16228;48.800;9.002;2023-04-24T01:59:12;11.50;96.90
212;DHT22;16228;48.800;9.002;2023-04-24T02:01:39;11.50;96.90
212;DHT22;16228;48.800;9.002;2023-04-24T02:04:07;11.50;96.90
212;DHT22;16228;48.800;9.002;2023-04-24T02:06:34;11.50;96.90
212;DHT22;16228;48.800;9.002;2023-04-24T02:09:01;11.40;96.90
212;DHT22;16228;48.800;9.002;2023-04-24T02:11:29;11.40;96.90
212;DHT22;16228;48.800;9.002;2023-04-24T02:13:58;11.40;96.90
212;DHT22;16228;48.800;9.002;2023-04-24T02:16:25;11.40;96.90
212;DHT22;16228;48.800;9.002;2023-04-24T02:18:52;11.50;96.90
212;DHT22;16228;48.800;9.002;2023-04-24T02:21:19;11.50;96.90
212;DHT22;16228;48.800;9.002;2023-04-24T02:23:45;11.60;96.90
212;DHT22;16228;48.800;9.002;2023-04-24T02:26:13;11.60;96.90
212;DHT22;16228;48.800;9.002;2023-04-24T02:28:40;11.60;96.90
212;DHT22;16228;48.800;9.002;2023-04-24T02:31:09;11.60;96.90
212;DHT22;16228;48.800;9.002;2023-04-24T02:33:36;11.60;96.90
212;DHT22;16228;48.800;9.002;2023-04-24T02:36:03;11.40;96.90
212;DHT22;16228;48.800;9.002;2023-04-24T02:38:30;11.30;96.90
212;DHT22;16228;48.800;9.002;2023-04-24T02:40:57;11.20;96.90
212;DHT22;16228;48.800;9.002;2023-04-24T02:43:24;11.10;96.90
212;DHT22;16228;48.800;9.002;2023-04-24T02:45:51;11.10;96.90
212;DHT22;16228;48.800;9.002;2023-04-24T02:48:19;11.10;96.90
212;DHT22;16228;48.800;9.002;2023-04-24T02:50:47;11.10;96.90
212;DHT22;16228;48.800;9.002;2023-04-24T02:53:14;11.10;96.90
212;DHT22;16228;48.800;9.002;2023-04-24T02:55:41;11.10;96.90
212;DHT22;16228;48.800;9.002;2023-04-24T02:58:08;11.10;96.90
212;DHT22;16228;48.800;9.002;2023-04-24T03:00:36;11.00;96.90
212;DHT22;16228;48.800;9.002;2023-04-24T03:03:03;11.00;96.90
212;DHT22;16228;48.800;9.002;2023-04-24T03:05:32;10.90;96.90
212;DHT22;16228;48.800;9.002;2023-04-24T03:07:59;11.00;96.90
212;DHT22;16228;48.800;9.002;2023-04-24T03:10:26;10.90;96.90
212;DHT22;16228;48.800;9.002;2023-04-24T03:12:53;10.90;96.90
212;DHT22;16228;48.800;9.002;2023-04-24T03:15:20;10.80;96.90
212;DHT22;16228;48.800;9.002;2023-04-24T03:17:47;10.80;96.90
212;DHT22;16228;48.800;9.002;2023-04-24T03:20:14;10.70;96.90
212;DHT22;16228;48.800;9.002;2023-04-24T03:22:43;10.80;96.90
212;DHT22;16228;48.800;9.002;2023-04-24T03:25:10;10.80;96.90
212;DHT22;16228;48.800;9.002;2023-04-24T03:27:37;10.80;96.90
212;DHT22;16228;48.800;9.002;2023-04-24T03:30:06;10.90;96.90
212;DHT22;16228;48.800;9.002;2023-04-24T03:32:33;10.90;96.90
212;DHT22;16228;48.800;9.002;2023-04-24T03:35:00;10.90;96.90
212;DHT22;16228;48.800;9.002;2023-04-24T03:37:27;10.80;96.90
212;DHT22;16228;48.800;9.002;2023-04-24T03:39:55;10.70;96.90
212;DHT22;16228;48.800;9.002;2023-04-24T03:42:22;10.70;96.90
212;DHT22;16228;48.800;9.002;2023-04-24T03:44:49;10.70;96.90
212;DHT22;16228;48.800;9.002;2023-04-24T03:47:16;10.60;96.90
212;DHT22;16228;48.800;9.002;2023-04-24T03:49:43;10.50;96.90
212;DHT22;16228;48.800;9.002;2023-04-24T03:52:10;10.40;96.90
212;DHT22;16228;48.800;9.002;2023-04-24T03:54:37;10.50;96.90
212;DHT22;16228;48.800;9.002;2023-04-24T03:57:05;10.50;96.90
212;DHT22;16228;48.800;9.002;2023-04-24T03:59:32;10.50;96.90
212;DHT22;16228;48.800;9.002;2023-04-24T04:01:59;10.50;96.90
212;DHT22;16228;48.800;9.002;2023-04-24T04:04:26;10.50;96.90
212;DHT22;16228;48.800;9.002;2023-04-24T04:06:53;10.60;96.90
212;DHT22;16228;48.800;9.002;2023-04-24T04:09:20;10.60;96.90
212;DHT22;16228;48.800;9.002;2023-04-24T04:11:47;10.50;96.90
212;DHT22;16228;48.800;9.002;2023-04-24T04:14:15;10.40;96.90
212;DHT22;16228;48.800;9.002;2023-04-24T04:16:42;10.40;96.90
212;DHT22;16228;48.800;9.002;2023-04-24T04:19:09;10.50;96.90
212;DHT22;16228;48.800;9.002;2023-04-24T04:21:36;10.40;96.90
212;DHT22;16228;48.800;9.002;2023-04-24T04:24:03;10.30;96.90
212;DHT22;16228;48.800;9.002;2023-04-24T04:26:31;10.30;96.90
212;DHT22;16228;48.800;9.002;2023-04-24T04:28:58;10.20;96.90
212;DHT22;16228;48.800;9.002;2023-04-24T04:31:27;10.30;96.90
212;DHT22;16228;48.800;9.002;2023-04-24T04:33:55;10.20;96.90
212;DHT22;16228;48.800;9.002;2023-04-24T04:36:21;10.20;96.90
212;DHT22;16228;48.800;9.002;2023-04-24T04:38:49;10.10;96.90
212;DHT22;16228;48.800;9.002;2023-04-24T04:41:16;10.00;96.90
212;DHT22;16228;48.800;9.002;2023-04-24T04:43:43;10.00;96.90
212;DHT22;16228;48.800;9.002;2023-04-24T04:46:12;9.90;96.90
212;DHT22;16228;48.800;9.002;2023-04-24T04:48:40;9.90;96.90
212;DHT22;16228;48.800;9.002;2023-04-24T04:51:07;9.90;96.90
212;DHT22;16228;48.800;9.002;2023-04-24T04:53:34;9.90;96.90
212;DHT22;16228;48.800;9.002;2023-04-24T04:56:01;10.00;96.90
212;DHT22;16228;48.800;9.002;2023-04-24T04:58:28;10.00;96.90
212;DHT22;16228;48.800;9.002;2023-04-24T05:00:56;10.00;96.90
212;DHT22;16228;48.800;9.002;2023-04-24T05:03:23;9.90;96.90
212;DHT22;16228;48.800;9.002;2023-04-24T05:05:52;9.90;96.90
212;DHT22;16228;48.800;9.002;2023-04-24T05:08:19;9.90;96.90
212;DHT22;16228;48.800;9.002;2023-04-24T05:10:46;9.80;96.90
212;DHT22;16228;48.800;9.002;2023-04-24T05:13:13;9.70;96.90
212;DHT22;16228;48.800;9.002;2023-04-24T05:15:40;9.70;96.90
212;DHT22;16228;48.800;9.002;2023-04-24T05:18:07;9.70;96.90
212;DHT22;16228;48.800;9.002;2023-04-24T05:20:34;9.80;96.90
212;DHT22;16228;48.800;9.002;2023-04-24T05:23:02;9.90;96.90
212;DHT22;16228;48.800;9.002;2023-04-24T05:25:29;10.00;96.90
212;DHT22;16228;48.800;9.002;2023-04-24T05:27:57;10.00;96.90
212;DHT22;16228;48.800;9.002;2023-04-24T05:30:24;10.00;96.90
212;DHT22;16228;48.800;9.002;2023-04-24T05:32:51;10.00;96.90
212;DHT22;16228;48.800;9.002;2023-04-24T05:35:18;9.90;96.90
212;DHT22;16228;48.800;9.002;2023-04-24T05:37:45;9.90;96.90
212;DHT22;16228;48.800;9.002;2023-04-24T05:40:13;9.80;96.90
212;DHT22;16228;48.800;9.002;2023-04-24T05:42:40;9.90;96.90
212;DHT22;16228;48.800;9.002;2023-04-24T05:45:08;10.00;96.90
212;DHT22;16228;48.800;9.002;2023-04-24T05:47:40;10.00;96.90
212;DHT22;16228;48.800;9.002;2023-04-24T05:50:07;10.10;96.90
212;DHT22;16228;48.800;9.002;2023-04-24T05:52:34;10.10;96.90
212;DHT22;16228;48.800;9.002;2023-04-24T05:55:01;10.20;96.90
212;DHT22;16228;48.800;9.002;2023-04-24T05:57:30;10.20;96.90
212;DHT22;16228;48.800;9.002;2023-04-24T05:59:57;10.10;96.90
212;DHT22;16228;48.800;9.002;2023-04-24T06:02:24;10.10;96.90
212;DHT22;16228;48.800;9.002;2023-04-24T06:04:53;10.00;96.90
212;DHT22;16228;48.800;9.002;2023-04-24T06:07:20;10.10;96.90
212;DHT22;16228;48.800;9.002;2023-04-24T06:09:47;10.20;96.90
212;DHT22;16228;48.800;9.002;2023-04-24T06:12:14;10.30;96.90
212;DHT22;16228;48.800;9.002;2023-04-24T06:14:43;10.60;96.90
212;DHT22;16228;48.800;9.002;2023-04-24T06:17:10;11.00;96.90
212;DHT22;16228;48.800;9.002;2023-04-24T06:19:37;11.20;96.90
212;DHT22;16228;48.800;9.002;2023-04-24T06:22:04;11.40;96.90
212;DHT22;16228;48.800;9.002;2023-04-24T06:24:31;11.60;96.90
212;DHT22;16228;48.800;9.002;2023-04-24T06:26:58;11.60;96.90
212;DHT22;16228;48.800;9.002;2023-04-24T06:29:26;11.90;96.90
212;DHT22;16228;48.800;9.002;2023-04-24T06:31:55;12.30;96.90
212;DHT22;16228;48.800;9.002;2023-04-24T06:34:22;13.00;96.90
212;DHT22;16228;48.800;9.002;2023-04-24T06:36:49;13.60;96.90
212;DHT22;16228;48.800;9.002;2023-04-24T06:39:16;14.50;96.90
212;DHT22;16228;48.800;9.002;2023-04-24T06:41:42;15.30;96.90
212;DHT22;16228;48.800;9.002;2023-04-24T06:44:09;15.70;96.90
212;DHT22;16228;48.800;9.002;2023-04-24T06:46:36;15.70;96.90
212;DHT22;16228;48.800;9.002;2023-04-24T06:49:05;15.80;96.90
212;DHT22;16228;48.800;9.002;2023-04-24T06:51:32;16.30;96.90
212;DHT22;16228;48.800;9.002;2023-04-24T06:53:59;17.20;96.90
212;DHT22;16228;48.800;9.002;2023-04-24T06:56:27;17.10;94.00
212;DHT22;16228;48.800;9.002;2023-04-24T06:58:54;16.70;94.80
212;DHT22;16228;48.800;9.002;2023-04-24T07:01:21;16.20;95.20
212;DHT22;16228;48.800;9.002;2023-04-24T07:03:48;15.50;96.90
212;DHT22;16228;48.800;9.002;2023-04-24T07:06:17;14.80;96.90
212;DHT22;16228;48.800;9.002;2023-04-24T07:08:47;14.10;96.90
212;DHT22;16228;48.800;9.002;2023-04-24T07:11:14;13.60;96.90
212;DHT22;16228;48.800;9.002;2023-04-24T07:13:41;13.00;96.90
212;DHT22;16228;48.800;9.002;2023-04-24T07:16:08;12.70;96.90
212;DHT22;16228;48.800;9.002;2023-04-24T07:18:35;12.70;96.90
212;DHT22;16228;48.800;9.002;2023-04-24T07:21:03;12.80;96.90
212;DHT22;16228;48.800;9.002;2023-04-24T07:23:31;13.00;96.90
212;DHT22;16228;48.800;9.002;2023-04-24T07:25:58;13.10;96.90
212;DHT22;16228;48.800;9.002;2023-04-24T07:28:25;13.30;96.90
212;DHT22;16228;48.800;9.002;2023-04-24T07:30:52;13.30;96.90
212;DHT22;16228;48.800;9.002;2023-04-24T07:33:19;13.80;96.90
212;DHT22;16228;48.800;9.002;2023-04-24T07:35:46;14.80;96.90
212;DHT22;16228;48.800;9.002;2023-04-24T07:38:13;15.40;96.90
212;DHT22;16228;48.800;9.002;2023-04-24T07:40:41;15.60;94.10
212;DHT22;16228;48.800;9.002;2023-04-24T07:43:08;15.60;92.60
212;DHT22;16228;48.800;9.002;2023-04-24T07:45:36;15.10;94.70
212;DHT22;16228;48.800;9.002;2023-04-24T07:48:03;14.70;94.30
212;DHT22;16228;48.800;9.002;2023-04-24T07:50:30;14.70;94.00
212;DHT22;16228;48.800;9.002;2023-04-24T07:52:57;14.80;93.20
212;DHT22;16228;48.800;9.002;2023-04-24T07:55:24;14.70;94.30
212;DHT22;16228;48.800;9.002;2023-04-24T07:57:52;14.90;93.00
212;DHT22;16228;48.800;9.002;2023-04-24T08:00:20;15.30;91.30
212;DHT22;16228;48.800;9.002;2023-04-24T08:02:47;15.40;90.00
212;DHT22;16228;48.800;9.002;2023-04-24T08:05:14;15.40;90.80
212;DHT22;16228;48.800;9.002;2023-04-24T08:07:41;15.50;90.10
212;DHT22;16228;48.800;9.002;2023-04-24T08:10:10;15.70;89.90
212;DHT22;16228;48.800;9.002;2023-04-24T08:12:37;16.40;88.80
212;DHT22;16228;48.800;9.002;2023-04-24T08:15:07;15.80;87.80
212;DHT22;16228;48.800;9.002;2023-04-24T08:17:34;15.40;89.90
212;DHT22;16228;48.800;9.002;2023-04-24T08:20:01;16.10;91.40
212;DHT22;16228;48.800;9.002;2023-04-24T08:22:28;17.10;89.20
212;DHT22;16228;48.800;9.002;2023-04-24T08:24:55;18.00;84.90
212;DHT22;16228;48.800;9.002;2023-04-24T08:27:23;18.20;84.50
212;DHT22;16228;48.800;9.002;2023-04-24T08:29:50;17.70;84.10
212;DHT22;16228;48.800;9.002;2023-04-24T08:32:18;17.00;87.20
212;DHT22;16228;48.800;9.002;2023-04-24T08:34:45;15.80;87.10
212;DHT22;16228;48.800;9.002;2023-04-24T08:37:13;14.80;91.00
212;DHT22;16228;48.800;9.002;2023-04-24T08:39:40;14.00;93.30
212;DHT22;16228;48.800;9.002;2023-04-24T08:42:07;13.40;96.80
212;DHT22;16228;48.800;9.002;2023-04-24T08:44:35;13.10;96.90
212;DHT22;16228;48.800;9.002;2023-04-24T08:47:03;12.80;96.90
212;DHT22;16228;48.800;9.002;2023-04-24T08:49:32;13.00;96.90
212;DHT22;16228;48.800;9.002;2023-04-24T08:52:00;13.20;96.90
212;DHT22;16228;48.800;9.002;2023-04-24T08:54:28;13.60;96.90
212;DHT22;16228;48.800;9.002;2023-04-24T08:56:58;13.70;96.90
212;DHT22;16228;48.800;9.002;2023-04-24T08:59:26;14.00;95.40
212;DHT22;16228;48.800;9.002;2023-04-24T09:01:55;13.80;94.60
212;DHT22;16228;48.800;9.002;2023-04-24T09:04:22;13.40;96.90
212;DHT22;16228;48.800;9.002;2023-04-24T09:06:52;13.00;96.90
212;DHT22;16228;48.800;9.002;2023-04-24T09:09:22;12.40;96.90
212;DHT22;16228;48.800;9.002;2023-04-24T09:11:50;12.00;96.90
212;DHT22;16228;48.800;9.002;2023-04-24T09:14:19;11.40;96.90
212;DHT22;16228;48.800;9.002;2023-04-24T09:16:47;11.20;96.90
212;DHT22;16228;48.800;9.002;2023-04-24T09:19:14;11.20;96.90
212;DHT22;16228;48.800;9.002;2023-04-24T09:21:41;11.30;96.90
212;DHT22;16228;48.800;9.002;2023-04-24T09:24:17;11.50;96.90
212;DHT22;16228;48.800;9.002;2023-04-24T09:26:46;11.70;96.90
212;DHT22;16228;48.800;9.002;2023-04-24T09:29:15;12.40;96.90
212;DHT22;16228;48.800;9.002;2023-04-24T09:31:43;13.20;96.90
212;DHT22;16228;48.800;9.002;2023-04-24T09:34:10;13.50;96.90
212;DHT22;16228;48.800;9.002;2023-04-24T09:36:38;13.30;96.90
212;DHT22;16228;48.800;9.002;2023-04-24T09:39:08;13.30;96.90
212;DHT22;16228;48.800;9.002;2023-04-24T09:41:44;13.30;96.90
212;DHT22;16228;48.800;9.002;2023-04-24T09:44:12;13.30;96.90
212;DHT22;16228;48.800;9.002;2023-04-24T09:46:41;13.20;96.90
212;DHT22;16228;48.800;9.002;2023-04-24T09:49:09;13.40;96.70
212;DHT22;16228;48.800;9.002;2023-04-24T09:51:37;13.60;95.70
212;DHT22;16228;48.800;9.002;2023-04-24T09:54:13;13.60;94.90
212;DHT22;16228;48.800;9.002;2023-04-24T09:56:44;13.80;95.50
212;DHT22;16228;48.800;9.002;2023-04-24T09:59:12;13.80;95.00
212;DHT22;16228;48.800;9.002;2023-04-24T10:01:40;14.30;92.60
212;DHT22;16228;48.800;9.002;2023-04-24T10:04:16;15.00;91.70
212;DHT22;16228;48.800;9.002;2023-04-24T10:06:45;15.50;89.50
212;DHT22;16228;48.800;9.002;2023-04-24T10:09:14;15.80;87.20
212;DHT22;16228;48.800;9.002;2023-04-24T10:11:44;16.00;86.20
212;DHT22;16228;48.800;9.002;2023-04-24T10:14:13;15.50;86.40
212;DHT22;16228;48.800;9.002;2023-04-24T10:16:40;15.50;86.90
212;DHT22;16228;48.800;9.002;2023-04-24T10:19:07;16.30;85.40
212;DHT22;16228;48.800;9.002;2023-04-24T10:21:35;16.60;83.80
212;DHT22;16228;48.800;9.002;2023-04-24T10:24:04;16.20;83.40
212;DHT22;16228;48.800;9.002;2023-04-24T10:26:33;15.20;84.70
212;DHT22;16228;48.800;9.002;2023-04-24T10:29:03;14.50;87.30
212;DHT22;16228;48.800;9.002;2023-04-24T10:31:36;14.00;89.80
212;DHT22;16228;48.800;9.002;2023-04-24T10:34:04;13.80;91.30
212;DHT22;16228;48.800;9.002;2023-04-24T10:36:32;13.90;91.80
212;DHT22;16228;48.800;9.002;2023-04-24T10:39:02;13.80;91.30
212;DHT22;16228;48.800;9.002;2023-04-24T10:41:30;13.90;90.70
212;DHT22;16228;48.800;9.002;2023-04-24T10:44:09;14.00;90.80
212;DHT22;16228;48.800;9.002;2023-04-24T10:46:36;14.00;90.30
212;DHT22;16228;48.800;9.002;2023-04-24T10:49:05;14.00;90.20
212;DHT22;16228;48.800;9.002;2023-04-24T10:51:45;13.90;90.90
212;DHT22;16228;48.800;9.002;2023-04-24T10:54:23;13.70;91.10
212;DHT22;16228;48.800;9.002;2023-04-24T10:56:51;13.50;92.30
212;DHT22;16228;48.800;9.002;2023-04-24T10:59:27;13.10;93.40
212;DHT22;16228;48.800;9.002;2023-04-24T11:01:55;12.90;93.70
212;DHT22;16228;48.800;9.002;2023-04-24T11:04:32;12.60;95.00
212;DHT22;16228;48.800;9.002;2023-04-24T11:07:01;12.40;94.90
212;DHT22;16228;48.800;9.002;2023-04-24T11:09:31;12.20;94.90
212;DHT22;16228;48.800;9.002;2023-04-24T11:12:06;12.40;94.50
212;DHT22;16228;48.800;9.002;2023-04-24T11:15:01;12.80;94.60
212;DHT22;16228;48.800;9.002;2023-04-24T11:17:31;13.50;93.10
212;DHT22;16228;48.800;9.002;2023-04-24T11:20:03;14.40;91.80
212;DHT22;16228;48.800;9.002;2023-04-24T11:22:34;15.90;86.60
212;DHT22;16228;48.800;9.002;2023-04-24T11:25:02;17.00;84.90
212;DHT22;16228;48.800;9.002;2023-04-24T11:27:31;16.80;83.10
212;DHT22;16228;48.800;9.002;2023-04-24T11:30:01;16.10;85.80
212;DHT22;16228;48.800;9.002;2023-04-24T11:32:30;15.70;86.60
212;DHT22;16228;48.800;9.002;2023-04-24T11:34:58;15.00;88.00
212;DHT22;16228;48.800;9.002;2023-04-24T11:37:27;14.30;90.50
212;DHT22;16228;48.800;9.002;2023-04-24T11:39:56;13.70;96.10
212;DHT22;16228;48.800;9.002;2023-04-24T11:42:24;13.30;96.90
212;DHT22;16228;48.800;9.002;2023-04-24T11:44:52;13.40;96.90
212;DHT22;16228;48.800;9.002;2023-04-24T11:47:27;14.00;96.90
212;DHT22;16228;48.800;9.002;2023-04-24T11:49:54;15.10;93.90
212;DHT22;16228;48.800;9.002;2023-04-24T11:52:21;16.70;91.40
212;DHT22;16228;48.800;9.002;2023-04-24T11:54:49;18.60;84.80
212;DHT22;16228;48.800;9.002;2023-04-24T11:57:18;19.60;81.20
212;DHT22;16228;48.800;9.002;2023-04-24T11:59:46;19.60;78.10
212;DHT22;16228;48.800;9.002;2023-04-24T12:02:22;18.70;79.80
212;DHT22;16228;48.800;9.002;2023-04-24T12:04:49;16.90;81.70
212;DHT22;16228;48.800;9.002;2023-04-24T12:07:16;15.80;86.40
212;DHT22;16228;48.800;9.002;2023-04-24T12:09:44;14.80;88.20
212;DHT22;16228;48.800;9.002;2023-04-24T12:12:12;14.20;90.70
212;DHT22;16228;48.800;9.002;2023-04-24T12:14:49;13.90;91.50
212;DHT22;16228;48.800;9.002;2023-04-24T12:17:25;13.90;91.70
212;DHT22;16228;48.800;9.002;2023-04-24T12:19:57;14.50;90.70
212;DHT22;16228;48.800;9.002;2023-04-24T12:22:25;14.70;88.80
212;DHT22;16228;48.800;9.002;2023-04-24T12:25:02;15.10;90.20
212;DHT22;16228;48.800;9.002;2023-04-24T12:27:31;15.00;89.40
212;DHT22;16228;48.800;9.002;2023-04-24T12:29:59;14.80;87.50
212;DHT22;16228;48.800;9.002;2023-04-24T12:32:27;15.90;87.50
212;DHT22;16228;48.800;9.002;2023-04-24T12:34:55;16.60;83.90
212;DHT22;16228;48.800;9.002;2023-04-24T12:37:24;16.60;84.10
212;DHT22;16228;48.800;9.002;2023-04-24T12:40:06;15.90;85.20
212;DHT22;16228;48.800;9.002;2023-04-24T12:42:34;14.90;87.10
212;DHT22;16228;48.800;9.002;2023-04-24T12:45:03;14.20;88.90
212;DHT22;16228;48.800;9.002;2023-04-24T12:47:32;13.60;92.10
212;DHT22;16228;48.800;9.002;2023-04-24T12:50:00;13.00;96.90
212;DHT22;16228;48.800;9.002;2023-04-24T12:52:29;12.60;96.90
212;DHT22;16228;48.800;9.002;2023-04-24T12:54:57;12.20;96.90
212;DHT22;16228;48.800;9.002;2023-04-24T12:57:25;12.30;96.90
212;DHT22;16228;48.800;9.002;2023-04-24T12:59:55;12.70;96.90
212;DHT22;16228;48.800;9.002;2023-04-24T13:02:22;14.10;96.90
212;DHT22;16228;48.800;9.002;2023-04-24T13:04:52;15.90;96.90
212;DHT22;16228;48.800;9.002;2023-04-24T13:07:20;17.00;94.30
212;DHT22;16228;48.800;9.002;2023-04-24T13:09:49;17.00;92.10
212;DHT22;16228;48.800;9.002;2023-04-24T13:12:16;17.50;93.70
212;DHT22;16228;48.800;9.002;2023-04-24T13:14:43;18.40;85.90
212;DHT22;16228;48.800;9.002;2023-04-24T13:17:11;19.50;81.70
212;DHT22;16228;48.800;9.002;2023-04-24T13:19:39;20.00;84.10
212;DHT22;16228;48.800;9.002;2023-04-24T13:22:09;21.00;78.80
212;DHT22;16228;48.800;9.002;2023-04-24T13:24:37;20.60;80.80
212;DHT22;16228;48.800;9.002;2023-04-24T13:27:06;19.60;81.40
212;DHT22;16228;48.800;9.002;2023-04-24T13:29:33;18.70;82.80
212;DHT22;16228;48.800;9.002;2023-04-24T13:32:00;17.70;85.60
212;DHT22;16228;48.800;9.002;2023-04-24T13:34:27;16.30;87.00
212;DHT22;16228;48.800;9.002;2023-04-24T13:36:56;15.30;91.40
212;DHT22;16228;48.800;9.002;2023-04-24T13:39:25;14.10;96.90
212;DHT22;16228;48.800;9.002;2023-04-24T13:41:53;13.70;96.90
212;DHT22;16228;48.800;9.002;2023-04-24T13:44:21;13.70;96.90
212;DHT22;16228;48.800;9.002;2023-04-24T13:46:54;13.70;96.90
212;DHT22;16228;48.800;9.002;2023-04-24T13:49:23;13.50;96.90
212;DHT22;16228;48.800;9.002;2023-04-24T13:51:51;13.70;96.90
212;DHT22;16228;48.800;9.002;2023-04-24T13:54:18;14.10;96.90
212;DHT22;16228;48.800;9.002;2023-04-24T13:56:50;14.80;96.90
212;DHT22;16228;48.800;9.002;2023-04-24T13:59:19;15.40;96.10
212;DHT22;16228;48.800;9.002;2023-04-24T14:01:46;16.10;95.10
212;DHT22;16228;48.800;9.002;2023-04-24T14:04:13;16.50;92.70
212;DHT22;16228;48.800;9.002;2023-04-24T14:06:40;16.10;91.20
212;DHT22;16228;48.800;9.002;2023-04-24T14:09:07;15.30;91.30
212;DHT22;16228;48.800;9.002;2023-04-24T14:11:34;14.70;94.20
212;DHT22;16228;48.800;9.002;2023-04-24T14:14:03;14.80;95.20
212;DHT22;16228;48.800;9.002;2023-04-24T14:16:30;15.20;92.70
212;DHT22;16228;48.800;9.002;2023-04-24T14:18:57;15.60;92.80
212;DHT22;16228;48.800;9.002;2023-04-24T14:21:25;15.50;91.60
212;DHT22;16228;48.800;9.002;2023-04-24T14:23:52;15.30;90.90
212;DHT22;16228;48.800;9.002;2023-04-24T14:26:19;14.70;92.80
212;DHT22;16228;48.800;9.002;2023-04-24T14:28:46;14.00;94.50
212;DHT22;16228;48.800;9.002;2023-04-24T14:31:14;13.60;95.80
212;DHT22;16228;48.800;9.002;2023-04-24T14:33:41;13.50;96.90
212;DHT22;16228;48.800;9.002;2023-04-24T14:36:08;13.30;96.90
212;DHT22;16228;48.800;9.002;2023-04-24T14:38:35;13.40;96.90
212;DHT22;16228;48.800;9.002;2023-04-24T14:41:02;13.50;96.90
212;DHT22;16228;48.800;9.002;2023-04-24T14:43:34;13.80;96.90
212;DHT22;16228;48.800;9.002;2023-04-24T14:46:02;14.00;96.00
212;DHT22;16228;48.800;9.002;2023-04-24T14:48:30;13.90;95.20
212;DHT22;16228;48.800;9.002;2023-04-24T14:50:57;14.00;95.40
212;DHT22;16228;48.800;9.002;2023-04-24T14:53:24;14.50;94.50
212;DHT22;16228;48.800;9.002;2023-04-24T14:55:51;14.90;93.80
212;DHT22;16228;48.800;9.002;2023-04-24T14:58:18;14.50;91.80
212;DHT22;16228;48.800;9.002;2023-04-24T15:00:45;14.30;94.60
212;DHT22;16228;48.800;9.002;2023-04-24T15:03:15;14.00;93.60
212;DHT22;16228;48.800;9.002;2023-04-24T15:05:44;13.70;95.10
212;DHT22;16228;48.800;9.002;2023-04-24T15:08:11;13.40;95.80
212;DHT22;16228;48.800;9.002;2023-04-24T15:10:38;13.20;96.00
212;DHT22;16228;48.800;9.002;2023-04-24T15:13:05;13.00;96.90
212;DHT22;16228;48.800;9.002;2023-04-24T15:15:32;12.90;96.90
212;DHT22;16228;48.800;9.002;2023-04-24T15:17:59;12.60;96.90
212;DHT22;16228;48.800;9.002;2023-04-24T15:20:26;12.30;96.90
212;DHT22;16228;48.800;9.002;2023-04-24T15:22:54;12.10;96.90
212;DHT22;16228;48.800;9.002;2023-04-24T15:25:21;12.00;96.90
212;DHT22;16228;48.800;9.002;2023-04-24T15:27:48;11.90;96.90
212;DHT22;16228;48.800;9.002;2023-04-24T15:30:15;12.00;96.90
212;DHT22;16228;48.800;9.002;2023-04-24T15:32:42;12.30;96.90
212;DHT22;16228;48.800;9.002;2023-04-24T15:35:09;12.60;96.90
212;DHT22;16228;48.800;9.002;2023-04-24T15:37:36;12.60;96.90
212;DHT22;16228;48.800;9.002;2023-04-24T15:40:06;12.40;96.90
212;DHT22;16228;48.800;9.002;2023-04-24T15:42:34;12.30;96.90
212;DHT22;16228;48.800;9.002;2023-04-24T15:45:01;12.30;96.90
212;DHT22;16228;48.800;9.002;2023-04-24T15:47:28;12.50;96.90
212;DHT22;16228;48.800;9.002;2023-04-24T15:49:55;12.70;96.90
212;DHT22;16228;48.800;9.002;2023-04-24T15:52:23;12.90;96.90
212;DHT22;16228;48.800;9.002;2023-04-24T15:54:50;13.00;96.90
212;DHT22;16228;48.800;9.002;2023-04-24T15:57:19;13.00;96.90
212;DHT22;16228;48.800;9.002;2023-04-24T15:59:47;13.00;96.90
212;DHT22;16228;48.800;9.002;2023-04-24T16:02:14;13.10;96.90
212;DHT22;16228;48.800;9.002;2023-04-24T16:04:44;13.10;96.90
212;DHT22;16228;48.800;9.002;2023-04-24T16:07:11;13.00;96.90